Aviation Digital Data Service (ADDS)

Output produced by METARs form (0035 UTC 21 February 2017)
found at http://aviationweather.gov/adds/metars/
 
KPWM 202320Z 2100/2124 34009KT P6SM SKC 
     FM211800 15004KT P6SM BKN250